sensor_id;sensor_type;location;lat;lon;timestamp;temperature;humidity
52565;DHT22;38460;53.106;7.004;2024-01-30T00:01:43;5.70;99.90
52565;DHT22;38460;53.106;7.004;2024-01-30T00:04:08;5.70;99.90
52565;DHT22;38460;53.106;7.004;2024-01-30T00:06:34;5.70;99.90
52565;DHT22;38460;53.106;7.004;2024-01-30T00:09:00;5.70;99.90
52565;DHT22;38460;53.106;7.004;2024-01-30T00:11:26;5.70;99.90
52565;DHT22;38460;53.106;7.004;2024-01-30T00:13:52;5.70;99.90
52565;DHT22;38460;53.106;7.004;2024-01-30T00:16:22;5.60;99.90
52565;DHT22;38460;53.106;7.004;2024-01-30T00:18:52;5.70;99.90
52565;DHT22;38460;53.106;7.004;2024-01-30T00:21:19;5.70;99.90
52565;DHT22;38460;53.106;7.004;2024-01-30T00:23:45;5.70;99.90
52565;DHT22;38460;53.106;7.004;2024-01-30T00:26:11;5.60;99.90
52565;DHT22;38460;53.106;7.004;2024-01-30T00:28:38;5.60;99.90
52565;DHT22;38460;53.106;7.004;2024-01-30T00:31:04;5.70;99.90
52565;DHT22;38460;53.106;7.004;2024-01-30T00:33:30;5.70;99.90
52565;DHT22;38460;53.106;7.004;2024-01-30T00:35:56;5.70;99.90
52565;DHT22;38460;53.106;7.004;2024-01-30T00:38:22;5.70;99.90
52565;DHT22;38460;53.106;7.004;2024-01-30T00:40:48;5.70;99.90
52565;DHT22;38460;53.106;7.004;2024-01-30T00:43:14;5.70;99.90
52565;DHT22;38460;53.106;7.004;2024-01-30T00:45:40;5.70;99.90
52565;DHT22;38460;53.106;7.004;2024-01-30T00:48:06;5.60;99.90
52565;DHT22;38460;53.106;7.004;2024-01-30T00:50:32;5.60;99.90
52565;DHT22;38460;53.106;7.004;2024-01-30T00:52:57;5.60;99.90
52565;DHT22;38460;53.106;7.004;2024-01-30T00:55:23;5.60;99.90
52565;DHT22;38460;53.106;7.004;2024-01-30T00:57:49;5.70;99.90
52565;DHT22;38460;53.106;7.004;2024-01-30T01:00:15;5.70;99.90
52565;DHT22;38460;53.106;7.004;2024-01-30T01:02:42;5.70;99.90
52565;DHT22;38460;53.106;7.004;2024-01-30T01:05:08;5.70;99.90
52565;DHT22;38460;53.106;7.004;2024-01-30T01:07:34;5.70;99.90
52565;DHT22;38460;53.106;7.004;2024-01-30T01:10:00;5.70;99.90
52565;DHT22;38460;53.106;7.004;2024-01-30T01:12:25;5.70;99.90
52565;DHT22;38460;53.106;7.004;2024-01-30T01:14:51;5.70;99.90
52565;DHT22;38460;53.106;7.004;2024-01-30T01:17:17;5.70;99.90
52565;DHT22;38460;53.106;7.004;2024-01-30T01:19:44;5.70;99.90
52565;DHT22;38460;53.106;7.004;2024-01-30T01:22:10;5.70;99.90
52565;DHT22;38460;53.106;7.004;2024-01-30T01:24:36;5.70;99.90
52565;DHT22;38460;53.106;7.004;2024-01-30T01:27:02;5.70;99.90
52565;DHT22;38460;53.106;7.004;2024-01-30T01:29:28;5.70;99.90
52565;DHT22;38460;53.106;7.004;2024-01-30T01:32:00;5.70;99.90
52565;DHT22;38460;53.106;7.004;2024-01-30T01:34:26;5.60;99.90
52565;DHT22;38460;53.106;7.004;2024-01-30T01:36:52;5.70;99.90
52565;DHT22;38460;53.106;7.004;2024-01-30T01:39:21;5.60;99.90
52565;DHT22;38460;53.106;7.004;2024-01-30T01:41:48;5.60;99.90
52565;DHT22;38460;53.106;7.004;2024-01-30T01:44:14;5.70;99.90
52565;DHT22;38460;53.106;7.004;2024-01-30T01:46:40;5.70;99.90
52565;DHT22;38460;53.106;7.004;2024-01-30T01:49:06;5.70;99.90
52565;DHT22;38460;53.106;7.004;2024-01-30T01:51:35;5.70;99.90
52565;DHT22;38460;53.106;7.004;2024-01-30T01:54:03;5.70;99.90
52565;DHT22;38460;53.106;7.004;2024-01-30T01:56:30;5.70;99.90
52565;DHT22;38460;53.106;7.004;2024-01-30T01:59:00;5.80;99.90
52565;DHT22;38460;53.106;7.004;2024-01-30T02:01:26;5.70;99.90
52565;DHT22;38460;53.106;7.004;2024-01-30T02:03:53;5.70;99.90
52565;DHT22;38460;53.106;7.004;2024-01-30T02:06:19;5.70;99.90
52565;DHT22;38460;53.106;7.004;2024-01-30T02:08:45;5.70;99.90
52565;DHT22;38460;53.106;7.004;2024-01-30T02:11:11;5.70;99.90
52565;DHT22;38460;53.106;7.004;2024-01-30T02:13:37;5.70;99.90
52565;DHT22;38460;53.106;7.004;2024-01-30T02:16:03;5.70;99.90
52565;DHT22;38460;53.106;7.004;2024-01-30T02:18:29;5.70;99.90
52565;DHT22;38460;53.106;7.004;2024-01-30T02:20:58;5.70;99.90
52565;DHT22;38460;53.106;7.004;2024-01-30T02:23:27;5.70;99.90
52565;DHT22;38460;53.106;7.004;2024-01-30T02:25:53;5.70;99.90
52565;DHT22;38460;53.106;7.004;2024-01-30T02:28:19;5.70;99.90
52565;DHT22;38460;53.106;7.004;2024-01-30T02:30:46;5.70;99.90
52565;DHT22;38460;53.106;7.004;2024-01-30T02:33:12;5.70;99.90
52565;DHT22;38460;53.106;7.004;2024-01-30T02:35:38;5.70;99.90
52565;DHT22;38460;53.106;7.004;2024-01-30T02:38:04;5.80;99.90
52565;DHT22;38460;53.106;7.004;2024-01-30T02:40:31;5.70;99.90
52565;DHT22;38460;53.106;7.004;2024-01-30T02:42:58;5.70;99.90
52565;DHT22;38460;53.106;7.004;2024-01-30T02:45:24;5.80;99.90
52565;DHT22;38460;53.106;7.004;2024-01-30T02:47:50;5.80;99.90
52565;DHT22;38460;53.106;7.004;2024-01-30T02:50:16;5.80;99.90
52565;DHT22;38460;53.106;7.004;2024-01-30T02:52:42;5.80;99.90
52565;DHT22;38460;53.106;7.004;2024-01-30T02:55:11;5.80;99.90
52565;DHT22;38460;53.106;7.004;2024-01-30T02:57:38;5.80;99.90
52565;DHT22;38460;53.106;7.004;2024-01-30T03:00:04;5.80;99.90
52565;DHT22;38460;53.106;7.004;2024-01-30T03:02:33;5.80;99.90
52565;DHT22;38460;53.106;7.004;2024-01-30T03:04:59;5.80;99.90
52565;DHT22;38460;53.106;7.004;2024-01-30T03:07:26;5.80;99.90
52565;DHT22;38460;53.106;7.004;2024-01-30T03:09:51;5.80;99.90
52565;DHT22;38460;53.106;7.004;2024-01-30T03:12:18;5.80;99.90
52565;DHT22;38460;53.106;7.004;2024-01-30T03:14:43;5.80;99.90
52565;DHT22;38460;53.106;7.004;2024-01-30T03:17:09;5.80;99.90
52565;DHT22;38460;53.106;7.004;2024-01-30T03:19:35;5.80;99.90
52565;DHT22;38460;53.106;7.004;2024-01-30T03:22:00;5.80;99.90
52565;DHT22;38460;53.106;7.004;2024-01-30T03:24:26;5.80;99.90
52565;DHT22;38460;53.106;7.004;2024-01-30T03:26:52;5.80;99.90
52565;DHT22;38460;53.106;7.004;2024-01-30T03:29:18;5.80;99.90
52565;DHT22;38460;53.106;7.004;2024-01-30T03:31:44;5.80;99.90
52565;DHT22;38460;53.106;7.004;2024-01-30T03:34:10;5.80;99.90
52565;DHT22;38460;53.106;7.004;2024-01-30T03:36:35;5.80;99.90
52565;DHT22;38460;53.106;7.004;2024-01-30T03:39:01;5.80;99.90
52565;DHT22;38460;53.106;7.004;2024-01-30T03:41:27;5.80;99.90
52565;DHT22;38460;53.106;7.004;2024-01-30T03:43:53;5.80;99.90
52565;DHT22;38460;53.106;7.004;2024-01-30T03:46:19;5.80;99.90
52565;DHT22;38460;53.106;7.004;2024-01-30T03:48:47;5.80;99.90
52565;DHT22;38460;53.106;7.004;2024-01-30T03:51:13;5.80;99.90
52565;DHT22;38460;53.106;7.004;2024-01-30T03:53:43;5.80;99.90
52565;DHT22;38460;53.106;7.004;2024-01-30T03:56:09;5.80;99.90
52565;DHT22;38460;53.106;7.004;2024-01-30T03:58:35;5.80;99.90
52565;DHT22;38460;53.106;7.004;2024-01-30T04:01:01;5.80;99.90
52565;DHT22;38460;53.106;7.004;2024-01-30T04:03:27;5.80;99.90
52565;DHT22;38460;53.106;7.004;2024-01-30T04:05:53;5.80;99.90
52565;DHT22;38460;53.106;7.004;2024-01-30T04:08:19;5.80;99.90
52565;DHT22;38460;53.106;7.004;2024-01-30T04:10:45;5.90;99.90
52565;DHT22;38460;53.106;7.004;2024-01-30T04:13:11;5.90;99.90
52565;DHT22;38460;53.106;7.004;2024-01-30T04:15:37;5.90;99.90
52565;DHT22;38460;53.106;7.004;2024-01-30T04:18:03;5.90;99.90
52565;DHT22;38460;53.106;7.004;2024-01-30T04:20:29;5.90;99.90
52565;DHT22;38460;53.106;7.004;2024-01-30T04:22:55;6.00;99.90
52565;DHT22;38460;53.106;7.004;2024-01-30T04:25:21;6.00;99.90
52565;DHT22;38460;53.106;7.004;2024-01-30T04:27:46;6.00;99.90
52565;DHT22;38460;53.106;7.004;2024-01-30T04:30:12;6.10;99.90
52565;DHT22;38460;53.106;7.004;2024-01-30T04:32:38;6.00;99.90
52565;DHT22;38460;53.106;7.004;2024-01-30T04:35:04;6.10;99.90
52565;DHT22;38460;53.106;7.004;2024-01-30T04:37:30;6.10;99.90
52565;DHT22;38460;53.106;7.004;2024-01-30T04:39:56;6.10;99.90
52565;DHT22;38460;53.106;7.004;2024-01-30T04:42:22;6.10;99.90
52565;DHT22;38460;53.106;7.004;2024-01-30T04:44:49;6.10;99.90
52565;DHT22;38460;53.106;7.004;2024-01-30T04:47:14;6.10;99.90
52565;DHT22;38460;53.106;7.004;2024-01-30T04:49:40;6.10;99.90
52565;DHT22;38460;53.106;7.004;2024-01-30T04:52:07;6.10;99.90
52565;DHT22;38460;53.106;7.004;2024-01-30T04:54:33;6.10;99.90
52565;DHT22;38460;53.106;7.004;2024-01-30T04:57:00;6.10;99.90
52565;DHT22;38460;53.106;7.004;2024-01-30T04:59:26;6.10;99.90
52565;DHT22;38460;53.106;7.004;2024-01-30T05:01:51;6.20;99.90
52565;DHT22;38460;53.106;7.004;2024-01-30T05:04:17;6.20;99.90
52565;DHT22;38460;53.106;7.004;2024-01-30T05:06:43;6.20;99.90
52565;DHT22;38460;53.106;7.004;2024-01-30T05:09:09;6.20;99.90
52565;DHT22;38460;53.106;7.004;2024-01-30T05:11:41;6.20;99.90
52565;DHT22;38460;53.106;7.004;2024-01-30T05:14:07;6.20;99.90
52565;DHT22;38460;53.106;7.004;2024-01-30T05:16:34;6.20;99.90
52565;DHT22;38460;53.106;7.004;2024-01-30T05:19:00;6.20;99.90
52565;DHT22;38460;53.106;7.004;2024-01-30T05:21:26;6.20;99.90
52565;DHT22;38460;53.106;7.004;2024-01-30T05:23:52;6.20;99.90
52565;DHT22;38460;53.106;7.004;2024-01-30T05:26:17;6.20;99.90
52565;DHT22;38460;53.106;7.004;2024-01-30T05:28:43;6.20;99.90
52565;DHT22;38460;53.106;7.004;2024-01-30T05:31:12;6.20;99.90
52565;DHT22;38460;53.106;7.004;2024-01-30T05:33:37;6.20;99.90
52565;DHT22;38460;53.106;7.004;2024-01-30T05:36:03;6.30;99.90
52565;DHT22;38460;53.106;7.004;2024-01-30T05:38:29;6.30;99.90
52565;DHT22;38460;53.106;7.004;2024-01-30T05:40:56;6.30;99.90
52565;DHT22;38460;53.106;7.004;2024-01-30T05:43:23;6.30;99.90
52565;DHT22;38460;53.106;7.004;2024-01-30T05:45:49;6.30;99.90
52565;DHT22;38460;53.106;7.004;2024-01-30T05:48:15;6.30;99.90
52565;DHT22;38460;53.106;7.004;2024-01-30T05:50:41;6.30;99.90
52565;DHT22;38460;53.106;7.004;2024-01-30T05:53:07;6.30;99.90
52565;DHT22;38460;53.106;7.004;2024-01-30T05:55:33;6.30;99.90
52565;DHT22;38460;53.106;7.004;2024-01-30T05:57:58;6.30;99.90
52565;DHT22;38460;53.106;7.004;2024-01-30T06:00:24;6.30;99.90
52565;DHT22;38460;53.106;7.004;2024-01-30T06:02:50;6.40;99.90
52565;DHT22;38460;53.106;7.004;2024-01-30T06:05:16;6.40;99.90
52565;DHT22;38460;53.106;7.004;2024-01-30T06:07:41;6.40;99.90
52565;DHT22;38460;53.106;7.004;2024-01-30T06:10:08;6.40;99.90
52565;DHT22;38460;53.106;7.004;2024-01-30T06:12:34;6.40;99.90
52565;DHT22;38460;53.106;7.004;2024-01-30T06:15:01;6.40;99.90
52565;DHT22;38460;53.106;7.004;2024-01-30T06:17:27;6.40;99.90
52565;DHT22;38460;53.106;7.004;2024-01-30T06:19:52;6.40;99.90
52565;DHT22;38460;53.106;7.004;2024-01-30T06:22:18;6.40;99.90
52565;DHT22;38460;53.106;7.004;2024-01-30T06:24:44;6.40;99.90
52565;DHT22;38460;53.106;7.004;2024-01-30T06:27:16;6.40;99.90
52565;DHT22;38460;53.106;7.004;2024-01-30T06:29:43;6.40;99.90
52565;DHT22;38460;53.106;7.004;2024-01-30T06:32:09;6.40;99.90
52565;DHT22;38460;53.106;7.004;2024-01-30T06:34:34;6.40;99.90
52565;DHT22;38460;53.106;7.004;2024-01-30T06:37:00;6.40;99.90
52565;DHT22;38460;53.106;7.004;2024-01-30T06:39:26;6.40;99.90
52565;DHT22;38460;53.106;7.004;2024-01-30T06:41:52;6.40;99.90
52565;DHT22;38460;53.106;7.004;2024-01-30T06:44:18;6.40;99.90
52565;DHT22;38460;53.106;7.004;2024-01-30T06:46:44;6.40;99.90
52565;DHT22;38460;53.106;7.004;2024-01-30T06:49:10;6.40;99.90
52565;DHT22;38460;53.106;7.004;2024-01-30T06:51:36;6.40;99.90
52565;DHT22;38460;53.106;7.004;2024-01-30T06:54:01;6.50;99.90
52565;DHT22;38460;53.106;7.004;2024-01-30T06:56:28;6.50;99.90
52565;DHT22;38460;53.106;7.004;2024-01-30T06:58:53;6.50;99.90
52565;DHT22;38460;53.106;7.004;2024-01-30T07:01:19;6.50;99.90
52565;DHT22;38460;53.106;7.004;2024-01-30T07:03:45;6.60;99.90
52565;DHT22;38460;53.106;7.004;2024-01-30T07:06:11;6.60;99.90
52565;DHT22;38460;53.106;7.004;2024-01-30T07:08:37;6.60;99.90
52565;DHT22;38460;53.106;7.004;2024-01-30T07:11:07;6.60;99.90
52565;DHT22;38460;53.106;7.004;2024-01-30T07:13:34;6.70;99.90
52565;DHT22;38460;53.106;7.004;2024-01-30T07:16:00;6.70;99.90
52565;DHT22;38460;53.106;7.004;2024-01-30T07:18:26;6.70;99.90
52565;DHT22;38460;53.106;7.004;2024-01-30T07:20:52;6.80;99.90
52565;DHT22;38460;53.106;7.004;2024-01-30T07:23:18;6.80;99.90
52565;DHT22;38460;53.106;7.004;2024-01-30T07:25:44;6.90;99.90
52565;DHT22;38460;53.106;7.004;2024-01-30T07:28:10;6.90;99.90
52565;DHT22;38460;53.106;7.004;2024-01-30T07:30:37;6.90;99.90
52565;DHT22;38460;53.106;7.004;2024-01-30T07:33:04;7.00;99.90
52565;DHT22;38460;53.106;7.004;2024-01-30T07:35:30;7.00;99.90
52565;DHT22;38460;53.106;7.004;2024-01-30T07:37:55;7.00;99.90
52565;DHT22;38460;53.106;7.004;2024-01-30T07:40:22;7.00;99.90
52565;DHT22;38460;53.106;7.004;2024-01-30T07:42:49;7.00;99.90
52565;DHT22;38460;53.106;7.004;2024-01-30T07:45:15;7.00;99.90
52565;DHT22;38460;53.106;7.004;2024-01-30T07:47:41;7.00;99.90
52565;DHT22;38460;53.106;7.004;2024-01-30T07:50:08;7.00;99.90
52565;DHT22;38460;53.106;7.004;2024-01-30T07:52:34;7.00;99.90
52565;DHT22;38460;53.106;7.004;2024-01-30T07:55:00;7.00;99.90
52565;DHT22;38460;53.106;7.004;2024-01-30T07:57:26;7.00;99.90
52565;DHT22;38460;53.106;7.004;2024-01-30T07:59:51;7.00;99.90
52565;DHT22;38460;53.106;7.004;2024-01-30T08:02:17;7.00;99.90
52565;DHT22;38460;53.106;7.004;2024-01-30T08:04:43;7.00;99.90
52565;DHT22;38460;53.106;7.004;2024-01-30T08:07:09;7.00;99.90
52565;DHT22;38460;53.106;7.004;2024-01-30T08:09:35;7.00;99.90
52565;DHT22;38460;53.106;7.004;2024-01-30T08:12:00;7.10;99.90
52565;DHT22;38460;53.106;7.004;2024-01-30T08:14:27;7.10;99.90
52565;DHT22;38460;53.106;7.004;2024-01-30T08:16:53;7.10;99.90
52565;DHT22;38460;53.106;7.004;2024-01-30T08:19:19;7.10;99.90
52565;DHT22;38460;53.106;7.004;2024-01-30T08:21:47;7.10;99.90
52565;DHT22;38460;53.106;7.004;2024-01-30T08:24:13;7.10;99.90
52565;DHT22;38460;53.106;7.004;2024-01-30T08:26:39;7.30;99.90
52565;DHT22;38460;53.106;7.004;2024-01-30T08:29:04;7.20;99.90
52565;DHT22;38460;53.106;7.004;2024-01-30T08:31:30;7.20;99.90
52565;DHT22;38460;53.106;7.004;2024-01-30T08:33:56;7.30;99.90
52565;DHT22;38460;53.106;7.004;2024-01-30T08:36:22;7.30;99.90
52565;DHT22;38460;53.106;7.004;2024-01-30T08:38:47;7.40;99.90
52565;DHT22;38460;53.106;7.004;2024-01-30T08:41:13;7.40;99.90
52565;DHT22;38460;53.106;7.004;2024-01-30T08:43:39;7.40;99.90
52565;DHT22;38460;53.106;7.004;2024-01-30T08:46:05;7.50;99.90
52565;DHT22;38460;53.106;7.004;2024-01-30T08:48:30;7.50;99.90
52565;DHT22;38460;53.106;7.004;2024-01-30T08:50:56;7.50;99.90
52565;DHT22;38460;53.106;7.004;2024-01-30T08:53:22;7.50;99.90
52565;DHT22;38460;53.106;7.004;2024-01-30T08:55:48;7.60;99.90
52565;DHT22;38460;53.106;7.004;2024-01-30T08:58:13;7.70;99.90
52565;DHT22;38460;53.106;7.004;2024-01-30T09:00:41;7.70;99.90
52565;DHT22;38460;53.106;7.004;2024-01-30T09:03:06;7.70;99.90
52565;DHT22;38460;53.106;7.004;2024-01-30T09:05:32;7.70;99.90
52565;DHT22;38460;53.106;7.004;2024-01-30T09:07:58;7.70;99.90
52565;DHT22;38460;53.106;7.004;2024-01-30T09:10:23;7.80;99.90
52565;DHT22;38460;53.106;7.004;2024-01-30T09:12:49;7.80;99.90
52565;DHT22;38460;53.106;7.004;2024-01-30T09:15:15;7.80;99.90
52565;DHT22;38460;53.106;7.004;2024-01-30T09:17:42;7.90;99.90
52565;DHT22;38460;53.106;7.004;2024-01-30T09:20:08;8.00;99.90
52565;DHT22;38460;53.106;7.004;2024-01-30T09:22:34;8.00;99.90
52565;DHT22;38460;53.106;7.004;2024-01-30T09:25:00;8.00;99.90
52565;DHT22;38460;53.106;7.004;2024-01-30T09:27:26;8.10;99.90
52565;DHT22;38460;53.106;7.004;2024-01-30T09:29:52;8.10;99.90
52565;DHT22;38460;53.106;7.004;2024-01-30T09:32:18;8.10;99.90
52565;DHT22;38460;53.106;7.004;2024-01-30T09:34:44;8.20;99.90
52565;DHT22;38460;53.106;7.004;2024-01-30T09:37:09;8.20;99.90
52565;DHT22;38460;53.106;7.004;2024-01-30T09:39:35;8.20;99.90
52565;DHT22;38460;53.106;7.004;2024-01-30T09:44:51;8.30;99.90
52565;DHT22;38460;53.106;7.004;2024-01-30T09:47:18;8.30;99.90
52565;DHT22;38460;53.106;7.004;2024-01-30T09:49:44;8.30;99.90
52565;DHT22;38460;53.106;7.004;2024-01-30T09:52:11;8.30;99.90
52565;DHT22;38460;53.106;7.004;2024-01-30T09:54:38;8.40;99.90
52565;DHT22;38460;53.106;7.004;2024-01-30T09:57:04;8.40;99.90
52565;DHT22;38460;53.106;7.004;2024-01-30T09:59:31;8.40;99.90
52565;DHT22;38460;53.106;7.004;2024-01-30T10:01:57;8.40;99.90
52565;DHT22;38460;53.106;7.004;2024-01-30T10:04:23;8.50;99.90
52565;DHT22;38460;53.106;7.004;2024-01-30T10:06:50;8.50;99.90
52565;DHT22;38460;53.106;7.004;2024-01-30T10:09:16;8.50;99.90
52565;DHT22;38460;53.106;7.004;2024-01-30T10:11:42;8.50;99.90
52565;DHT22;38460;53.106;7.004;2024-01-30T10:14:08;8.50;99.90
52565;DHT22;38460;53.106;7.004;2024-01-30T10:16:36;8.60;99.90
52565;DHT22;38460;53.106;7.004;2024-01-30T10:19:02;8.60;99.90
52565;DHT22;38460;53.106;7.004;2024-01-30T10:21:29;8.60;99.90
52565;DHT22;38460;53.106;7.004;2024-01-30T10:23:55;8.70;99.90
52565;DHT22;38460;53.106;7.004;2024-01-30T10:26:21;8.70;99.90
52565;DHT22;38460;53.106;7.004;2024-01-30T10:28:48;8.80;99.90
52565;DHT22;38460;53.106;7.004;2024-01-30T10:31:18;8.80;99.90
52565;DHT22;38460;53.106;7.004;2024-01-30T10:33:46;8.90;99.90
52565;DHT22;38460;53.106;7.004;2024-01-30T10:36:13;8.90;99.90
52565;DHT22;38460;53.106;7.004;2024-01-30T10:38:42;8.90;99.90
52565;DHT22;38460;53.106;7.004;2024-01-30T10:41:08;8.90;99.90
52565;DHT22;38460;53.106;7.004;2024-01-30T10:43:41;9.00;99.90
52565;DHT22;38460;53.106;7.004;2024-01-30T10:46:19;9.00;99.90
52565;DHT22;38460;53.106;7.004;2024-01-30T10:48:51;9.00;99.90
52565;DHT22;38460;53.106;7.004;2024-01-30T10:51:22;9.10;99.90
52565;DHT22;38460;53.106;7.004;2024-01-30T10:53:49;9.10;99.90
52565;DHT22;38460;53.106;7.004;2024-01-30T10:56:16;9.10;99.90
52565;DHT22;38460;53.106;7.004;2024-01-30T10:58:42;9.20;99.90
52565;DHT22;38460;53.106;7.004;2024-01-30T11:01:09;9.20;99.90
52565;DHT22;38460;53.106;7.004;2024-01-30T11:03:35;9.20;99.90
52565;DHT22;38460;53.106;7.004;2024-01-30T11:06:02;9.30;99.90
52565;DHT22;38460;53.106;7.004;2024-01-30T11:08:28;9.30;99.90
52565;DHT22;38460;53.106;7.004;2024-01-30T11:10:56;9.30;99.90
52565;DHT22;38460;53.106;7.004;2024-01-30T11:13:27;9.40;99.90
52565;DHT22;38460;53.106;7.004;2024-01-30T11:15:53;9.40;99.90
52565;DHT22;38460;53.106;7.004;2024-01-30T11:18:25;9.50;99.90
52565;DHT22;38460;53.106;7.004;2024-01-30T11:20:52;9.50;99.90
52565;DHT22;38460;53.106;7.004;2024-01-30T11:23:17;9.50;99.90
52565;DHT22;38460;53.106;7.004;2024-01-30T11:25:44;9.60;99.90
52565;DHT22;38460;53.106;7.004;2024-01-30T11:28:14;9.60;99.90
52565;DHT22;38460;53.106;7.004;2024-01-30T11:30:41;9.60;99.90
52565;DHT22;38460;53.106;7.004;2024-01-30T11:33:12;9.70;99.90
52565;DHT22;38460;53.106;7.004;2024-01-30T11:35:42;9.70;99.90
52565;DHT22;38460;53.106;7.004;2024-01-30T11:38:10;9.70;99.90
52565;DHT22;38460;53.106;7.004;2024-01-30T11:40:38;9.80;99.90
52565;DHT22;38460;53.106;7.004;2024-01-30T11:43:06;9.80;99.90
52565;DHT22;38460;53.106;7.004;2024-01-30T11:45:32;9.80;99.90
52565;DHT22;38460;53.106;7.004;2024-01-30T11:47:59;9.80;99.90
52565;DHT22;38460;53.106;7.004;2024-01-30T11:50:33;9.90;99.90
52565;DHT22;38460;53.106;7.004;2024-01-30T11:53:00;9.90;99.90
52565;DHT22;38460;53.106;7.004;2024-01-30T11:55:25;9.90;99.90
52565;DHT22;38460;53.106;7.004;2024-01-30T11:57:55;10.00;99.90
52565;DHT22;38460;53.106;7.004;2024-01-30T12:00:21;9.90;99.90
52565;DHT22;38460;53.106;7.004;2024-01-30T12:02:54;10.00;99.90
52565;DHT22;38460;53.106;7.004;2024-01-30T12:05:24;10.00;99.90
52565;DHT22;38460;53.106;7.004;2024-01-30T12:07:50;10.00;99.90
52565;DHT22;38460;53.106;7.004;2024-01-30T12:10:16;10.00;99.90
52565;DHT22;38460;53.106;7.004;2024-01-30T12:12:48;10.00;99.90
52565;DHT22;38460;53.106;7.004;2024-01-30T12:15:15;10.00;99.90
52565;DHT22;38460;53.106;7.004;2024-01-30T12:17:41;10.10;99.90
52565;DHT22;38460;53.106;7.004;2024-01-30T12:22:37;10.10;99.90
52565;DHT22;38460;53.106;7.004;2024-01-30T12:25:16;10.10;99.90
52565;DHT22;38460;53.106;7.004;2024-01-30T12:27:43;10.10;99.90
52565;DHT22;38460;53.106;7.004;2024-01-30T12:30:11;10.10;99.90
52565;DHT22;38460;53.106;7.004;2024-01-30T12:32:43;10.10;99.90
52565;DHT22;38460;53.106;7.004;2024-01-30T12:35:17;10.10;99.90
52565;DHT22;38460;53.106;7.004;2024-01-30T12:37:44;10.10;99.90
52565;DHT22;38460;53.106;7.004;2024-01-30T12:40:10;10.20;99.90
52565;DHT22;38460;53.106;7.004;2024-01-30T12:42:38;10.20;99.90
52565;DHT22;38460;53.106;7.004;2024-01-30T12:45:05;10.20;99.90
52565;DHT22;38460;53.106;7.004;2024-01-30T12:47:31;10.20;99.90
52565;DHT22;38460;53.106;7.004;2024-01-30T12:49:58;10.10;99.90
52565;DHT22;38460;53.106;7.004;2024-01-30T12:52:24;10.10;99.90
52565;DHT22;38460;53.106;7.004;2024-01-30T12:54:50;10.10;99.90
52565;DHT22;38460;53.106;7.004;2024-01-30T12:57:16;10.10;99.90
52565;DHT22;38460;53.106;7.004;2024-01-30T12:59:45;10.10;99.90
52565;DHT22;38460;53.106;7.004;2024-01-30T13:02:12;10.10;99.90
52565;DHT22;38460;53.106;7.004;2024-01-30T13:04:38;10.10;99.90
52565;DHT22;38460;53.106;7.004;2024-01-30T13:07:04;10.10;99.90
52565;DHT22;38460;53.106;7.004;2024-01-30T13:09:30;10.20;99.90
52565;DHT22;38460;53.106;7.004;2024-01-30T13:11:57;10.20;99.90
52565;DHT22;38460;53.106;7.004;2024-01-30T13:14:24;10.20;99.90
52565;DHT22;38460;53.106;7.004;2024-01-30T13:16:50;10.20;99.90
52565;DHT22;38460;53.106;7.004;2024-01-30T13:19:16;10.20;99.90
52565;DHT22;38460;53.106;7.004;2024-01-30T13:21:42;10.10;99.90
52565;DHT22;38460;53.106;7.004;2024-01-30T13:24:08;10.10;99.90
52565;DHT22;38460;53.106;7.004;2024-01-30T13:26:35;10.10;99.90
52565;DHT22;38460;53.106;7.004;2024-01-30T13:29:01;10.10;99.90
52565;DHT22;38460;53.106;7.004;2024-01-30T13:31:27;10.00;99.90
52565;DHT22;38460;53.106;7.004;2024-01-30T13:33:54;10.00;99.90
52565;DHT22;38460;53.106;7.004;2024-01-30T13:36:20;10.00;99.90
52565;DHT22;38460;53.106;7.004;2024-01-30T13:38:46;10.00;99.90
52565;DHT22;38460;53.106;7.004;2024-01-30T13:41:12;9.90;99.90
52565;DHT22;38460;53.106;7.004;2024-01-30T13:43:38;9.90;99.90
52565;DHT22;38460;53.106;7.004;2024-01-30T13:46:03;9.90;99.90
52565;DHT22;38460;53.106;7.004;2024-01-30T13:48:30;9.80;99.90
52565;DHT22;38460;53.106;7.004;2024-01-30T13:50:56;9.80;99.90
52565;DHT22;38460;53.106;7.004;2024-01-30T13:53:22;9.80;99.90
52565;DHT22;38460;53.106;7.004;2024-01-30T13:55:48;9.70;99.90
52565;DHT22;38460;53.106;7.004;2024-01-30T13:58:13;9.70;99.90
52565;DHT22;38460;53.106;7.004;2024-01-30T14:00:39;9.70;99.90
52565;DHT22;38460;53.106;7.004;2024-01-30T14:03:05;9.60;99.90
52565;DHT22;38460;53.106;7.004;2024-01-30T14:05:31;9.70;99.90
52565;DHT22;38460;53.106;7.004;2024-01-30T14:07:58;9.70;99.90
52565;DHT22;38460;53.106;7.004;2024-01-30T14:10:24;9.60;99.90
52565;DHT22;38460;53.106;7.004;2024-01-30T14:12:50;9.60;99.90
52565;DHT22;38460;53.106;7.004;2024-01-30T14:15:16;9.70;99.90
52565;DHT22;38460;53.106;7.004;2024-01-30T14:17:45;9.70;99.90
52565;DHT22;38460;53.106;7.004;2024-01-30T14:20:14;9.70;99.90
52565;DHT22;38460;53.106;7.004;2024-01-30T14:22:40;9.80;99.90
52565;DHT22;38460;53.106;7.004;2024-01-30T14:25:06;9.80;99.90
52565;DHT22;38460;53.106;7.004;2024-01-30T14:27:32;9.70;99.90
52565;DHT22;38460;53.106;7.004;2024-01-30T14:29:58;9.80;99.90
52565;DHT22;38460;53.106;7.004;2024-01-30T14:32:24;9.80;99.90
52565;DHT22;38460;53.106;7.004;2024-01-30T14:34:53;9.80;99.90
52565;DHT22;38460;53.106;7.004;2024-01-30T14:37:20;9.70;99.90
52565;DHT22;38460;53.106;7.004;2024-01-30T14:39:46;9.80;99.90
52565;DHT22;38460;53.106;7.004;2024-01-30T14:42:13;9.80;99.90
52565;DHT22;38460;53.106;7.004;2024-01-30T14:44:39;9.70;99.90
52565;DHT22;38460;53.106;7.004;2024-01-30T14:47:05;9.70;99.90
52565;DHT22;38460;53.106;7.004;2024-01-30T14:49:31;9.70;99.90
52565;DHT22;38460;53.106;7.004;2024-01-30T14:51:57;9.70;99.90
52565;DHT22;38460;53.106;7.004;2024-01-30T14:54:24;9.60;99.90
52565;DHT22;38460;53.106;7.004;2024-01-30T14:56:51;9.60;99.90
52565;DHT22;38460;53.106;7.004;2024-01-30T14:59:17;9.50;99.90
52565;DHT22;38460;53.106;7.004;2024-01-30T15:01:43;9.50;99.90
52565;DHT22;38460;53.106;7.004;2024-01-30T15:04:10;9.50;99.90
52565;DHT22;38460;53.106;7.004;2024-01-30T15:06:35;9.40;99.90
52565;DHT22;38460;53.106;7.004;2024-01-30T15:09:01;9.40;99.90
52565;DHT22;38460;53.106;7.004;2024-01-30T15:11:27;9.30;99.90
52565;DHT22;38460;53.106;7.004;2024-01-30T15:13:53;9.30;99.90
52565;DHT22;38460;53.106;7.004;2024-01-30T15:16:19;9.20;99.90
52565;DHT22;38460;53.106;7.004;2024-01-30T15:18:44;9.20;99.90
52565;DHT22;38460;53.106;7.004;2024-01-30T15:21:10;9.20;99.90
52565;DHT22;38460;53.106;7.004;2024-01-30T15:23:36;9.10;99.90
52565;DHT22;38460;53.106;7.004;2024-01-30T15:26:02;9.10;99.90
52565;DHT22;38460;53.106;7.004;2024-01-30T15:28:37;9.10;99.90
52565;DHT22;38460;53.106;7.004;2024-01-30T15:31:04;9.00;99.90
52565;DHT22;38460;53.106;7.004;2024-01-30T15:33:31;9.00;99.90
52565;DHT22;38460;53.106;7.004;2024-01-30T15:36:01;9.00;99.90
52565;DHT22;38460;53.106;7.004;2024-01-30T15:38:27;9.00;99.90
52565;DHT22;38460;53.106;7.004;2024-01-30T15:40:55;9.00;99.90
52565;DHT22;38460;53.106;7.004;2024-01-30T15:43:21;8.90;99.90
52565;DHT22;38460;53.106;7.004;2024-01-30T15:45:47;8.90;99.90